sensor_id;sensor_type;location;lat;lon;timestamp;pressure;altitude;pressure_sealevel;temperature;humidity
11347;BME280;5728;42.722;23.258;2024-03-17T00:01:18;95012.88;;;7.01;91.09
11347;BME280;5728;42.722;23.258;2024-03-17T00:03:45;95017.03;;;6.65;93.28
11347;BME280;5728;42.722;23.258;2024-03-17T00:06:12;95018.78;;;6.61;95.07
11347;BME280;5728;42.722;23.258;2024-03-17T00:08:39;95008.53;;;6.90;96.01
11347;BME280;5728;42.722;23.258;2024-03-17T00:11:05;95023.09;;;6.67;95.45
11347;BME280;5728;42.722;23.258;2024-03-17T00:13:32;95018.69;;;6.38;96.36
11347;BME280;5728;42.722;23.258;2024-03-17T00:15:58;95003.38;;;6.90;96.05
11347;BME280;5728;42.722;23.258;2024-03-17T00:18:25;95010.22;;;6.80;96.14
11347;BME280;5728;42.722;23.258;2024-03-17T00:20:53;95015.28;;;6.55;96.49
11347;BME280;5728;42.722;23.258;2024-03-17T00:23:21;95021.31;;;6.55;96.43
11347;BME280;5728;42.722;23.258;2024-03-17T00:25:48;95004.13;;;6.48;97.18
11347;BME280;5728;42.722;23.258;2024-03-17T00:28:16;95010.13;;;6.46;97.09
11347;BME280;5728;42.722;23.258;2024-03-17T00:30:43;95007.38;;;6.11;98.36
11347;BME280;5728;42.722;23.258;2024-03-17T00:33:09;95004.94;;;6.39;98.95
11347;BME280;5728;42.722;23.258;2024-03-17T00:35:36;95001.47;;;6.33;97.95
11347;BME280;5728;42.722;23.258;2024-03-17T00:38:02;95002.78;;;5.69;98.84
11347;BME280;5728;42.722;23.258;2024-03-17T00:40:38;95016.63;;;5.83;100.00
11347;BME280;5728;42.722;23.258;2024-03-17T00:43:04;95010.84;;;6.22;100.00
11347;BME280;5728;42.722;23.258;2024-03-17T00:45:31;95005.88;;;6.61;99.12
11347;BME280;5728;42.722;23.258;2024-03-17T00:47:57;95007.63;;;6.67;97.59
11347;BME280;5728;42.722;23.258;2024-03-17T00:50:24;95011.91;;;6.68;97.22
11347;BME280;5728;42.722;23.258;2024-03-17T00:52:50;95010.16;;;6.56;97.24
11347;BME280;5728;42.722;23.258;2024-03-17T00:55:17;95047.19;;;6.85;97.11
11347;BME280;5728;42.722;23.258;2024-03-17T00:57:44;95000.75;;;6.70;97.11
11347;BME280;5728;42.722;23.258;2024-03-17T01:00:12;94993.84;;;6.51;96.96
11347;BME280;5728;42.722;23.258;2024-03-17T01:02:40;95024.75;;;6.60;97.44
11347;BME280;5728;42.722;23.258;2024-03-17T01:05:07;95013.66;;;6.81;96.70
11347;BME280;5728;42.722;23.258;2024-03-17T01:07:34;95031.72;;;6.88;96.41
11347;BME280;5728;42.722;23.258;2024-03-17T01:10:01;95002.53;;;6.89;95.95
11347;BME280;5728;42.722;23.258;2024-03-17T01:12:28;95008.47;;;6.66;96.42
11347;BME280;5728;42.722;23.258;2024-03-17T01:14:58;95009.28;;;6.57;97.13
11347;BME280;5728;42.722;23.258;2024-03-17T01:17:24;95034.97;;;6.34;97.17
11347;BME280;5728;42.722;23.258;2024-03-17T01:19:51;95008.28;;;6.20;97.66
11347;BME280;5728;42.722;23.258;2024-03-17T01:22:17;95020.13;;;5.88;98.90
11347;BME280;5728;42.722;23.258;2024-03-17T01:24:44;94993.44;;;5.80;99.72
11347;BME280;5728;42.722;23.258;2024-03-17T01:27:11;95013.94;;;5.63;100.00
11347;BME280;5728;42.722;23.258;2024-03-17T01:29:40;95006.25;;;5.72;100.00
11347;BME280;5728;42.722;23.258;2024-03-17T01:32:08;94998.38;;;5.51;100.00
11347;BME280;5728;42.722;23.258;2024-03-17T01:34:34;95007.91;;;5.60;100.00
11347;BME280;5728;42.722;23.258;2024-03-17T01:37:01;95010.50;;;5.64;100.00
11347;BME280;5728;42.722;23.258;2024-03-17T01:39:27;95001.00;;;5.54;100.00
11347;BME280;5728;42.722;23.258;2024-03-17T01:41:54;95001.84;;;5.56;100.00
11347;BME280;5728;42.722;23.258;2024-03-17T01:44:22;95001.94;;;5.65;100.00
11347;BME280;5728;42.722;23.258;2024-03-17T01:46:50;95010.44;;;5.57;100.00
11347;BME280;5728;42.722;23.258;2024-03-17T01:49:18;95008.56;;;5.36;100.00
11347;BME280;5728;42.722;23.258;2024-03-17T01:51:46;95013.69;;;5.33;100.00
11347;BME280;5728;42.722;23.258;2024-03-17T01:54:12;95005.88;;;5.23;100.00
11347;BME280;5728;42.722;23.258;2024-03-17T01:56:40;95014.50;;;5.29;100.00
11347;BME280;5728;42.722;23.258;2024-03-17T01:59:08;95010.13;;;5.19;100.00
11347;BME280;5728;42.722;23.258;2024-03-17T02:01:37;95014.66;;;5.47;100.00
11347;BME280;5728;42.722;23.258;2024-03-17T02:04:04;95019.53;;;5.18;100.00
11347;BME280;5728;42.722;23.258;2024-03-17T02:06:34;95001.34;;;4.93;100.00
11347;BME280;5728;42.722;23.258;2024-03-17T02:09:01;94993.59;;;4.88;100.00
11347;BME280;5728;42.722;23.258;2024-03-17T02:11:30;95000.50;;;4.97;100.00
11347;BME280;5728;42.722;23.258;2024-03-17T02:13:57;94993.56;;;4.85;100.00
11347;BME280;5728;42.722;23.258;2024-03-17T02:16:26;94999.72;;;5.01;100.00
11347;BME280;5728;42.722;23.258;2024-03-17T02:18:54;95018.72;;;5.21;100.00
11347;BME280;5728;42.722;23.258;2024-03-17T02:21:21;95007.53;;;5.14;100.00
11347;BME280;5728;42.722;23.258;2024-03-17T02:23:50;94999.06;;;5.29;100.00
11347;BME280;5728;42.722;23.258;2024-03-17T02:26:17;94998.28;;;5.36;100.00
11347;BME280;5728;42.722;23.258;2024-03-17T02:28:45;95008.50;;;5.27;100.00
11347;BME280;5728;42.722;23.258;2024-03-17T02:31:14;95003.47;;;5.42;100.00
11347;BME280;5728;42.722;23.258;2024-03-17T02:33:41;94996.38;;;5.11;100.00
11347;BME280;5728;42.722;23.258;2024-03-17T02:36:09;95001.78;;;5.44;100.00
11347;BME280;5728;42.722;23.258;2024-03-17T02:38:37;95005.31;;;5.61;100.00
11347;BME280;5728;42.722;23.258;2024-03-17T02:41:23;94995.66;;;5.30;100.00
11347;BME280;5728;42.722;23.258;2024-03-17T02:43:50;94994.59;;;5.07;100.00
11347;BME280;5728;42.722;23.258;2024-03-17T02:46:18;95019.22;;;4.84;100.00
11347;BME280;5728;42.722;23.258;2024-03-17T02:48:48;94987.47;;;4.76;100.00
11347;BME280;5728;42.722;23.258;2024-03-17T02:51:16;94996.69;;;4.57;100.00
11347;BME280;5728;42.722;23.258;2024-03-17T02:53:45;94988.16;;;4.60;100.00
11347;BME280;5728;42.722;23.258;2024-03-17T02:56:14;95000.97;;;4.57;100.00
11347;BME280;5728;42.722;23.258;2024-03-17T02:58:44;95039.50;;;4.60;100.00
11347;BME280;5728;42.722;23.258;2024-03-17T03:01:11;94992.50;;;4.67;100.00
11347;BME280;5728;42.722;23.258;2024-03-17T03:03:38;95001.91;;;4.63;100.00
11347;BME280;5728;42.722;23.258;2024-03-17T03:06:05;94989.91;;;4.62;100.00
11347;BME280;5728;42.722;23.258;2024-03-17T03:08:34;94989.94;;;4.65;100.00
11347;BME280;5728;42.722;23.258;2024-03-17T03:11:03;94982.16;;;4.58;100.00
11347;BME280;5728;42.722;23.258;2024-03-17T03:13:31;94985.66;;;4.66;100.00
11347;BME280;5728;42.722;23.258;2024-03-17T03:16:00;94989.00;;;4.59;100.00
11347;BME280;5728;42.722;23.258;2024-03-17T03:18:27;94987.38;;;4.67;100.00
11347;BME280;5728;42.722;23.258;2024-03-17T03:20:54;94993.28;;;4.58;100.00
11347;BME280;5728;42.722;23.258;2024-03-17T03:23:21;94994.25;;;4.69;100.00
11347;BME280;5728;42.722;23.258;2024-03-17T03:25:47;95027.78;;;4.84;100.00
11347;BME280;5728;42.722;23.258;2024-03-17T03:28:14;95004.56;;;4.74;100.00
11347;BME280;5728;42.722;23.258;2024-03-17T03:30:41;94988.03;;;4.49;100.00
11347;BME280;5728;42.722;23.258;2024-03-17T03:33:09;94991.47;;;4.48;100.00
11347;BME280;5728;42.722;23.258;2024-03-17T03:35:36;95001.56;;;4.36;100.00
11347;BME280;5728;42.722;23.258;2024-03-17T03:38:03;95007.47;;;4.27;100.00
11347;BME280;5728;42.722;23.258;2024-03-17T03:40:30;94994.94;;;4.53;100.00
11347;BME280;5728;42.722;23.258;2024-03-17T03:42:58;94990.88;;;4.76;100.00
11347;BME280;5728;42.722;23.258;2024-03-17T03:45:25;94999.72;;;5.01;100.00
11347;BME280;5728;42.722;23.258;2024-03-17T03:47:52;94991.41;;;5.32;100.00
11347;BME280;5728;42.722;23.258;2024-03-17T03:50:21;94983.00;;;5.53;100.00
11347;BME280;5728;42.722;23.258;2024-03-17T03:52:49;95026.84;;;5.71;100.00
11347;BME280;5728;42.722;23.258;2024-03-17T03:55:16;95013.97;;;5.72;99.86
11347;BME280;5728;42.722;23.258;2024-03-17T03:57:44;95014.06;;;5.83;99.54
11347;BME280;5728;42.722;23.258;2024-03-17T04:00:14;95008.97;;;5.88;97.82
11347;BME280;5728;42.722;23.258;2024-03-17T04:02:42;95015.81;;;5.87;97.53
11347;BME280;5728;42.722;23.258;2024-03-17T04:05:09;95006.28;;;5.71;97.97
11347;BME280;5728;42.722;23.258;2024-03-17T04:07:39;95012.31;;;5.80;98.16
11347;BME280;5728;42.722;23.258;2024-03-17T04:10:09;95015.75;;;5.78;97.58
11347;BME280;5728;42.722;23.258;2024-03-17T04:12:36;95020.97;;;5.86;97.35
11347;BME280;5728;42.722;23.258;2024-03-17T04:15:04;95027.91;;;5.96;97.35
11347;BME280;5728;42.722;23.258;2024-03-17T04:17:32;95026.59;;;5.38;97.60
11347;BME280;5728;42.722;23.258;2024-03-17T04:19:59;95018.88;;;5.38;99.83
11347;BME280;5728;42.722;23.258;2024-03-17T04:22:27;95033.56;;;5.51;100.00
11347;BME280;5728;42.722;23.258;2024-03-17T04:24:55;95038.53;;;5.34;100.00
11347;BME280;5728;42.722;23.258;2024-03-17T04:27:22;95037.84;;;5.50;100.00
11347;BME280;5728;42.722;23.258;2024-03-17T04:29:50;95035.38;;;5.65;100.00
11347;BME280;5728;42.722;23.258;2024-03-17T04:32:17;95035.31;;;5.58;100.00
11347;BME280;5728;42.722;23.258;2024-03-17T04:34:44;95055.00;;;5.54;100.00
11347;BME280;5728;42.722;23.258;2024-03-17T04:37:12;95041.31;;;5.61;100.00
11347;BME280;5728;42.722;23.258;2024-03-17T04:39:39;95046.34;;;5.43;99.11
11347;BME280;5728;42.722;23.258;2024-03-17T04:42:10;95048.03;;;5.38;99.21
11347;BME280;5728;42.722;23.258;2024-03-17T04:44:37;95041.06;;;5.28;99.65
11347;BME280;5728;42.722;23.258;2024-03-17T04:47:05;95049.69;;;5.36;99.93
11347;BME280;5728;42.722;23.258;2024-03-17T04:49:34;95055.41;;;5.03;99.83
11347;BME280;5728;42.722;23.258;2024-03-17T04:52:02;95063.28;;;5.20;100.00
11347;BME280;5728;42.722;23.258;2024-03-17T04:54:30;95063.09;;;5.02;100.00
11347;BME280;5728;42.722;23.258;2024-03-17T04:56:57;95066.53;;;5.04;100.00
11347;BME280;5728;42.722;23.258;2024-03-17T04:59:26;95080.94;;;4.88;100.00
11347;BME280;5728;42.722;23.258;2024-03-17T05:01:53;95079.97;;;4.79;100.00
11347;BME280;5728;42.722;23.258;2024-03-17T05:04:20;95077.59;;;4.97;100.00
11347;BME280;5728;42.722;23.258;2024-03-17T05:06:48;95085.25;;;4.94;100.00
11347;BME280;5728;42.722;23.258;2024-03-17T05:09:16;95077.88;;;5.24;100.00
11347;BME280;5728;42.722;23.258;2024-03-17T05:11:43;95086.66;;;5.46;100.00
11347;BME280;5728;42.722;23.258;2024-03-17T05:14:10;95090.97;;;5.48;100.00
11347;BME280;5728;42.722;23.258;2024-03-17T05:16:39;95090.53;;;5.96;100.00
11347;BME280;5728;42.722;23.258;2024-03-17T05:19:06;95082.06;;;6.15;98.88
11347;BME280;5728;42.722;23.258;2024-03-17T05:21:34;95080.16;;;5.86;98.09
11347;BME280;5728;42.722;23.258;2024-03-17T05:24:02;95080.25;;;6.02;97.64
11347;BME280;5728;42.722;23.258;2024-03-17T05:26:29;95100.16;;;6.26;96.68
11347;BME280;5728;42.722;23.258;2024-03-17T05:28:57;95095.81;;;6.16;97.87
11347;BME280;5728;42.722;23.258;2024-03-17T05:31:24;95083.09;;;6.43;97.21
11347;BME280;5728;42.722;23.258;2024-03-17T05:33:53;95096.94;;;6.72;97.00
11347;BME280;5728;42.722;23.258;2024-03-17T05:36:20;95101.88;;;6.25;96.18
11347;BME280;5728;42.722;23.258;2024-03-17T05:38:47;95099.34;;;6.37;96.93
11347;BME280;5728;42.722;23.258;2024-03-17T05:41:14;95094.22;;;6.36;97.62
11347;BME280;5728;42.722;23.258;2024-03-17T05:43:41;95136.28;;;6.39;96.83
11347;BME280;5728;42.722;23.258;2024-03-17T05:46:09;95093.44;;;6.49;96.08
11347;BME280;5728;42.722;23.258;2024-03-17T05:48:38;95096.88;;;6.56;96.36
11347;BME280;5728;42.722;23.258;2024-03-17T05:51:07;95093.47;;;6.61;96.79
11347;BME280;5728;42.722;23.258;2024-03-17T05:53:35;95088.41;;;6.85;96.20
11347;BME280;5728;42.722;23.258;2024-03-17T05:56:03;95097.03;;;6.90;95.25
11347;BME280;5728;42.722;23.258;2024-03-17T05:58:33;95096.25;;;7.16;95.27
11347;BME280;5728;42.722;23.258;2024-03-17T06:01:02;95096.31;;;7.41;94.03
11347;BME280;5728;42.722;23.258;2024-03-17T06:03:29;95099.78;;;7.73;92.95
11347;BME280;5728;42.722;23.258;2024-03-17T06:05:58;95092.03;;;8.20;90.59
11347;BME280;5728;42.722;23.258;2024-03-17T06:08:27;95095.44;;;8.47;88.86
11347;BME280;5728;42.722;23.258;2024-03-17T06:10:54;95088.59;;;8.38;87.93
11347;BME280;5728;42.722;23.258;2024-03-17T06:13:22;95107.47;;;8.57;88.77
11347;BME280;5728;42.722;23.258;2024-03-17T06:15:50;95103.13;;;8.75;88.35
11347;BME280;5728;42.722;23.258;2024-03-17T06:18:17;95106.50;;;8.97;87.90
11347;BME280;5728;42.722;23.258;2024-03-17T06:20:45;95110.75;;;9.07;87.03
11347;BME280;5728;42.722;23.258;2024-03-17T06:23:13;95119.47;;;8.85;85.68
11347;BME280;5728;42.722;23.258;2024-03-17T06:25:43;95100.47;;;8.95;86.44
11347;BME280;5728;42.722;23.258;2024-03-17T06:28:12;95127.25;;;8.77;86.13
11347;BME280;5728;42.722;23.258;2024-03-17T06:30:40;95155.63;;;9.03;84.82
11347;BME280;5728;42.722;23.258;2024-03-17T06:33:07;95114.31;;;8.77;85.13
11347;BME280;5728;42.722;23.258;2024-03-17T06:35:36;95121.09;;;9.07;86.04
11347;BME280;5728;42.722;23.258;2024-03-17T06:38:03;95127.91;;;9.28;85.86
11347;BME280;5728;42.722;23.258;2024-03-17T06:40:30;95121.84;;;9.32;84.61
11347;BME280;5728;42.722;23.258;2024-03-17T06:42:59;95143.47;;;9.20;84.54
11347;BME280;5728;42.722;23.258;2024-03-17T06:45:26;95150.16;;;9.63;83.81
11347;BME280;5728;42.722;23.258;2024-03-17T06:47:53;95117.47;;;9.49;83.50
11347;BME280;5728;42.722;23.258;2024-03-17T06:50:20;95129.47;;;9.57;84.20
11347;BME280;5728;42.722;23.258;2024-03-17T06:52:51;95123.31;;;9.78;82.56
11347;BME280;5728;42.722;23.258;2024-03-17T06:55:18;95144.97;;;9.63;83.08
11347;BME280;5728;42.722;23.258;2024-03-17T06:57:47;95110.22;;;9.95;83.27
11347;BME280;5728;42.722;23.258;2024-03-17T07:00:16;95120.44;;;10.19;83.16
11347;BME280;5728;42.722;23.258;2024-03-17T07:02:44;95130.69;;;10.31;81.96
11347;BME280;5728;42.722;23.258;2024-03-17T07:05:12;95154.94;;;10.24;81.58
11347;BME280;5728;42.722;23.258;2024-03-17T07:07:42;95120.06;;;10.58;79.89
11347;BME280;5728;42.722;23.258;2024-03-17T07:10:10;95110.44;;;10.69;79.10
11347;BME280;5728;42.722;23.258;2024-03-17T07:12:39;95125.09;;;10.73;79.48
11347;BME280;5728;42.722;23.258;2024-03-17T07:15:09;95143.00;;;10.96;79.47
11347;BME280;5728;42.722;23.258;2024-03-17T07:17:38;95137.13;;;10.80;78.94
11347;BME280;5728;42.722;23.258;2024-03-17T07:20:06;95155.09;;;10.99;78.04
11347;BME280;5728;42.722;23.258;2024-03-17T07:22:35;95135.13;;;11.04;77.00
11347;BME280;5728;42.722;23.258;2024-03-17T07:25:02;95135.81;;;11.18;75.45
11347;BME280;5728;42.722;23.258;2024-03-17T07:27:29;95131.94;;;11.52;74.74
11347;BME280;5728;42.722;23.258;2024-03-17T07:29:57;95141.25;;;11.00;76.26
11347;BME280;5728;42.722;23.258;2024-03-17T07:32:24;95134.03;;;11.24;77.63
11347;BME280;5728;42.722;23.258;2024-03-17T07:34:52;95145.94;;;11.40;76.94
11347;BME280;5728;42.722;23.258;2024-03-17T07:37:20;95160.63;;;11.41;75.36
11347;BME280;5728;42.722;23.258;2024-03-17T07:39:47;95145.03;;;11.43;74.66
11347;BME280;5728;42.722;23.258;2024-03-17T07:42:15;95144.78;;;11.61;74.60
11347;BME280;5728;42.722;23.258;2024-03-17T07:44:44;95168.50;;;11.35;74.98
11347;BME280;5728;42.722;23.258;2024-03-17T07:47:11;95177.91;;;11.44;74.81
11347;BME280;5728;42.722;23.258;2024-03-17T07:49:38;95148.03;;;11.11;75.60
11347;BME280;5728;42.722;23.258;2024-03-17T07:52:07;95141.84;;;11.21;74.78
11347;BME280;5728;42.722;23.258;2024-03-17T07:54:34;95149.84;;;11.03;74.89
11347;BME280;5728;42.722;23.258;2024-03-17T07:57:03;95150.91;;;10.82;75.91
11347;BME280;5728;42.722;23.258;2024-03-17T07:59:30;95142.28;;;10.83;76.83
11347;BME280;5728;42.722;23.258;2024-03-17T08:01:57;95130.09;;;10.92;76.92
11347;BME280;5728;42.722;23.258;2024-03-17T08:04:24;95136.69;;;11.20;76.28
11347;BME280;5728;42.722;23.258;2024-03-17T08:06:52;95139.03;;;11.38;75.36
11347;BME280;5728;42.722;23.258;2024-03-17T08:09:20;95120.63;;;11.56;75.26
11347;BME280;5728;42.722;23.258;2024-03-17T08:11:48;95123.25;;;11.53;74.53
11347;BME280;5728;42.722;23.258;2024-03-17T08:14:15;95142.41;;;11.46;75.08
11347;BME280;5728;42.722;23.258;2024-03-17T08:16:42;95120.50;;;11.65;75.92
11347;BME280;5728;42.722;23.258;2024-03-17T08:19:09;95132.13;;;12.02;73.62
11347;BME280;5728;42.722;23.258;2024-03-17T08:21:37;95130.50;;;11.95;72.02
11347;BME280;5728;42.722;23.258;2024-03-17T08:24:04;95132.59;;;11.66;72.44
11347;BME280;5728;42.722;23.258;2024-03-17T08:26:33;95122.63;;;11.36;72.90
11347;BME280;5728;42.722;23.258;2024-03-17T08:29:01;95140.41;;;11.66;73.25
11347;BME280;5728;42.722;23.258;2024-03-17T08:31:29;95119.75;;;12.16;72.11
11347;BME280;5728;42.722;23.258;2024-03-17T08:33:57;95146.72;;;12.61;69.53
11347;BME280;5728;42.722;23.258;2024-03-17T08:36:24;95135.06;;;13.29;67.39
11347;BME280;5728;42.722;23.258;2024-03-17T08:38:51;95145.06;;;13.51;66.22
11347;BME280;5728;42.722;23.258;2024-03-17T08:41:20;95116.78;;;14.11;63.14
11347;BME280;5728;42.722;23.258;2024-03-17T08:43:50;95098.03;;;14.30;63.66
11347;BME280;5728;42.722;23.258;2024-03-17T08:46:17;95097.41;;;14.57;61.41
11347;BME280;5728;42.722;23.258;2024-03-17T08:48:44;95077.19;;;14.32;62.49
11347;BME280;5728;42.722;23.258;2024-03-17T08:51:12;95086.34;;;14.11;61.29
11347;BME280;5728;42.722;23.258;2024-03-17T08:53:40;95111.41;;;14.55;59.70
11347;BME280;5728;42.722;23.258;2024-03-17T08:56:07;95100.72;;;13.92;63.24
11347;BME280;5728;42.722;23.258;2024-03-17T08:58:35;95097.31;;;13.88;63.01
11347;BME280;5728;42.722;23.258;2024-03-17T09:01:07;95121.53;;;14.32;60.84
11347;BME280;5728;42.722;23.258;2024-03-17T09:03:34;95078.97;;;14.63;60.59
11347;BME280;5728;42.722;23.258;2024-03-17T09:06:02;95085.94;;;15.26;58.96
11347;BME280;5728;42.722;23.258;2024-03-17T09:08:29;95085.13;;;15.24;61.02
11347;BME280;5728;42.722;23.258;2024-03-17T09:10:58;95092.22;;;15.80;58.29
11347;BME280;5728;42.722;23.258;2024-03-17T09:13:25;95081.91;;;16.30;56.43
11347;BME280;5728;42.722;23.258;2024-03-17T09:15:54;95067.94;;;16.57;54.80
11347;BME280;5728;42.722;23.258;2024-03-17T09:18:24;95082.84;;;16.81;54.08
11347;BME280;5728;42.722;23.258;2024-03-17T09:20:57;95065.94;;;15.83;54.11
11347;BME280;5728;42.722;23.258;2024-03-17T09:23:25;95076.22;;;14.69;57.87
11347;BME280;5728;42.722;23.258;2024-03-17T09:25:57;95073.00;;;14.58;58.55
11347;BME280;5728;42.722;23.258;2024-03-17T09:28:25;95071.69;;;15.07;58.12
11347;BME280;5728;42.722;23.258;2024-03-17T09:30:52;95067.22;;;15.41;58.05
11347;BME280;5728;42.722;23.258;2024-03-17T09:33:21;95071.81;;;16.45;54.71
11347;BME280;5728;42.722;23.258;2024-03-17T09:35:56;95062.59;;;16.86;54.59
11347;BME280;5728;42.722;23.258;2024-03-17T09:38:24;95046.53;;;17.88;50.95
11347;BME280;5728;42.722;23.258;2024-03-17T09:40:52;95042.16;;;17.67;50.10
11347;BME280;5728;42.722;23.258;2024-03-17T09:43:19;95057.19;;;18.07;49.88
11347;BME280;5728;42.722;23.258;2024-03-17T09:45:47;95058.59;;;16.99;51.13
11347;BME280;5728;42.722;23.258;2024-03-17T09:48:16;95079.09;;;16.36;51.72
11347;BME280;5728;42.722;23.258;2024-03-17T09:50:50;95093.25;;;15.44;54.84
11347;BME280;5728;42.722;23.258;2024-03-17T09:53:23;95063.88;;;15.36;55.71
11347;BME280;5728;42.722;23.258;2024-03-17T09:55:51;95043.63;;;15.15;55.03
11347;BME280;5728;42.722;23.258;2024-03-17T09:58:19;95061.16;;;14.79;55.88
11347;BME280;5728;42.722;23.258;2024-03-17T10:00:46;95060.97;;;15.16;55.39
11347;BME280;5728;42.722;23.258;2024-03-17T10:03:39;95054.66;;;15.83;53.77
11347;BME280;5728;42.722;23.258;2024-03-17T10:06:07;95088.97;;;15.43;53.99
11347;BME280;5728;42.722;23.258;2024-03-17T10:08:42;95054.13;;;14.81;55.35
11347;BME280;5728;42.722;23.258;2024-03-17T10:11:10;95068.84;;;14.84;53.05
11347;BME280;5728;42.722;23.258;2024-03-17T10:13:38;95052.59;;;14.42;55.01
11347;BME280;5728;42.722;23.258;2024-03-17T10:16:05;95055.72;;;14.87;51.84
11347;BME280;5728;42.722;23.258;2024-03-17T10:18:32;95090.00;;;15.36;51.12
11347;BME280;5728;42.722;23.258;2024-03-17T10:21:00;95059.66;;;15.61;53.14
11347;BME280;5728;42.722;23.258;2024-03-17T10:23:27;95058.16;;;15.82;49.76
11347;BME280;5728;42.722;23.258;2024-03-17T10:25:56;95059.13;;;16.33;50.03
11347;BME280;5728;42.722;23.258;2024-03-17T10:28:24;95057.00;;;16.71;49.36
11347;BME280;5728;42.722;23.258;2024-03-17T10:30:58;95059.13;;;15.79;51.19
11347;BME280;5728;42.722;23.258;2024-03-17T10:33:26;95054.50;;;16.14;52.25
11347;BME280;5728;42.722;23.258;2024-03-17T10:36:00;95056.56;;;16.58;51.74
11347;BME280;5728;42.722;23.258;2024-03-17T10:38:29;95050.31;;;16.87;49.52
11347;BME280;5728;42.722;23.258;2024-03-17T10:40:57;95047.56;;;16.91;49.36
11347;BME280;5728;42.722;23.258;2024-03-17T10:43:24;95050.09;;;17.41;49.03
11347;BME280;5728;42.722;23.258;2024-03-17T10:45:52;95055.34;;;17.41;46.50
11347;BME280;5728;42.722;23.258;2024-03-17T10:48:21;95050.09;;;17.41;48.24
11347;BME280;5728;42.722;23.258;2024-03-17T10:50:55;95050.94;;;17.88;45.64
11347;BME280;5728;42.722;23.258;2024-03-17T10:53:24;95050.66;;;17.49;45.03
11347;BME280;5728;42.722;23.258;2024-03-17T10:56:02;95039.44;;;17.45;45.08
11347;BME280;5728;42.722;23.258;2024-03-17T10:58:34;95035.81;;;17.49;44.50
11347;BME280;5728;42.722;23.258;2024-03-17T11:01:02;95064.56;;;17.28;43.98
11347;BME280;5728;42.722;23.258;2024-03-17T11:03:32;95041.34;;;16.43;48.07
11347;BME280;5728;42.722;23.258;2024-03-17T11:06:02;95041.38;;;16.41;45.46
11347;BME280;5728;42.722;23.258;2024-03-17T11:08:31;95046.22;;;15.44;46.00
11347;BME280;5728;42.722;23.258;2024-03-17T11:10:59;95044.69;;;15.37;47.70
11347;BME280;5728;42.722;23.258;2024-03-17T11:13:29;95037.25;;;15.54;44.28
11347;BME280;5728;42.722;23.258;2024-03-17T11:15:57;95027.75;;;15.79;44.42
11347;BME280;5728;42.722;23.258;2024-03-17T11:18:37;95023.28;;;17.09;42.54
11347;BME280;5728;42.722;23.258;2024-03-17T11:21:06;95026.31;;;17.22;41.19
11347;BME280;5728;42.722;23.258;2024-03-17T11:23:36;95060.50;;;17.42;42.15
11347;BME280;5728;42.722;23.258;2024-03-17T11:26:05;95011.13;;;17.55;40.63
11347;BME280;5728;42.722;23.258;2024-03-17T11:28:47;95017.84;;;17.39;41.12
11347;BME280;5728;42.722;23.258;2024-03-17T11:31:42;95021.16;;;17.67;40.03
11347;BME280;5728;42.722;23.258;2024-03-17T11:34:32;95015.84;;;17.90;40.22
11347;BME280;5728;42.722;23.258;2024-03-17T11:37:00;94992.25;;;17.68;39.43
11347;BME280;5728;42.722;23.258;2024-03-17T11:42:23;95010.66;;;16.22;42.44
11347;BME280;5728;42.722;23.258;2024-03-17T11:45:00;95016.22;;;16.11;43.07
11347;BME280;5728;42.722;23.258;2024-03-17T11:47:34;95031.34;;;16.29;41.67
11347;BME280;5728;42.722;23.258;2024-03-17T11:50:06;95009.53;;;16.55;42.27
11347;BME280;5728;42.722;23.258;2024-03-17T11:52:34;95014.06;;;16.76;41.79
11347;BME280;5728;42.722;23.258;2024-03-17T11:55:01;95029.72;;;15.71;42.40
11347;BME280;5728;42.722;23.258;2024-03-17T11:57:28;95010.16;;;15.84;43.49
11347;BME280;5728;42.722;23.258;2024-03-17T11:59:56;94989.31;;;15.55;44.77
11347;BME280;5728;42.722;23.258;2024-03-17T12:02:25;95007.03;;;15.46;45.32
11347;BME280;5728;42.722;23.258;2024-03-17T12:04:54;94998.56;;;15.65;44.26
11347;BME280;5728;42.722;23.258;2024-03-17T12:07:23;95009.63;;;15.44;45.54
11347;BME280;5728;42.722;23.258;2024-03-17T12:09:53;95014.28;;;15.05;47.52
11347;BME280;5728;42.722;23.258;2024-03-17T12:12:22;95009.53;;;14.89;48.27
11347;BME280;5728;42.722;23.258;2024-03-17T12:14:50;95009.44;;;14.92;48.79
11347;BME280;5728;42.722;23.258;2024-03-17T12:17:21;94986.50;;;15.03;49.43
11347;BME280;5728;42.722;23.258;2024-03-17T12:19:49;95005.53;;;15.08;51.08
11347;BME280;5728;42.722;23.258;2024-03-17T12:22:17;95013.00;;;14.58;52.51
11347;BME280;5728;42.722;23.258;2024-03-17T12:24:48;95003.13;;;14.69;52.97
11347;BME280;5728;42.722;23.258;2024-03-17T12:27:20;95002.94;;;14.76;52.84
11347;BME280;5728;42.722;23.258;2024-03-17T12:29:48;95004.06;;;14.67;53.81
11347;BME280;5728;42.722;23.258;2024-03-17T12:32:17;95008.41;;;14.66;54.19
11347;BME280;5728;42.722;23.258;2024-03-17T12:34:45;94999.94;;;14.89;54.35
11347;BME280;5728;42.722;23.258;2024-03-17T12:37:18;94995.22;;;14.73;54.81
11347;BME280;5728;42.722;23.258;2024-03-17T12:39:44;95001.84;;;14.84;54.99
11347;BME280;5728;42.722;23.258;2024-03-17T12:42:13;95011.09;;;14.65;55.84
11347;BME280;5728;42.722;23.258;2024-03-17T12:44:40;95007.28;;;14.44;56.88
11347;BME280;5728;42.722;23.258;2024-03-17T12:47:15;94990.56;;;14.51;57.58
11347;BME280;5728;42.722;23.258;2024-03-17T12:49:45;94994.53;;;14.34;58.02
11347;BME280;5728;42.722;23.258;2024-03-17T12:52:19;94997.00;;;14.04;58.27
11347;BME280;5728;42.722;23.258;2024-03-17T12:54:45;94989.34;;;14.32;58.89
11347;BME280;5728;42.722;23.258;2024-03-17T12:57:43;94982.06;;;14.76;56.00
11347;BME280;5728;42.722;23.258;2024-03-17T13:00:27;94991.66;;;14.43;57.15
11347;BME280;5728;42.722;23.258;2024-03-17T13:03:01;94973.91;;;14.23;58.33
11347;BME280;5728;42.722;23.258;2024-03-17T13:05:28;94986.88;;;14.60;58.55
11347;BME280;5728;42.722;23.258;2024-03-17T13:07:57;95002.84;;;14.14;59.32
11347;BME280;5728;42.722;23.258;2024-03-17T13:10:25;94997.53;;;14.51;58.26
11347;BME280;5728;42.722;23.258;2024-03-17T13:13:00;94977.88;;;14.70;58.29